sensor_id;sensor_type;location;lat;lon;timestamp;temperature;humidity
55083;DHT22;40978;52.850;6.506;2023-06-14T00:00:18;16.60;85.40
55083;DHT22;40978;52.850;6.506;2023-06-14T00:02:45;16.50;85.40
55083;DHT22;40978;52.850;6.506;2023-06-14T00:05:11;16.50;86.20
55083;DHT22;40978;52.850;6.506;2023-06-14T00:07:41;16.40;86.70
55083;DHT22;40978;52.850;6.506;2023-06-14T00:10:08;16.40;86.00
55083;DHT22;40978;52.850;6.506;2023-06-14T00:12:34;16.40;87.70
55083;DHT22;40978;52.850;6.506;2023-06-14T00:15:00;16.30;88.50
55083;DHT22;40978;52.850;6.506;2023-06-14T00:17:29;16.30;89.50
55083;DHT22;40978;52.850;6.506;2023-06-14T00:19:57;16.20;90.30
55083;DHT22;40978;52.850;6.506;2023-06-14T00:22:23;16.20;90.30
55083;DHT22;40978;52.850;6.506;2023-06-14T00:24:54;16.20;89.50
55083;DHT22;40978;52.850;6.506;2023-06-14T00:27:19;16.10;91.20
55083;DHT22;40978;52.850;6.506;2023-06-14T00:29:45;16.10;92.40
55083;DHT22;40978;52.850;6.506;2023-06-14T00:32:11;16.10;91.80
55083;DHT22;40978;52.850;6.506;2023-06-14T00:34:37;16.00;93.30
55083;DHT22;40978;52.850;6.506;2023-06-14T00:37:03;16.00;93.80
55083;DHT22;40978;52.850;6.506;2023-06-14T00:39:28;15.90;93.80
55083;DHT22;40978;52.850;6.506;2023-06-14T00:41:54;15.90;92.50
55083;DHT22;40978;52.850;6.506;2023-06-14T00:44:20;15.80;94.30
55083;DHT22;40978;52.850;6.506;2023-06-14T00:46:49;15.80;95.70
55083;DHT22;40978;52.850;6.506;2023-06-14T00:49:16;15.80;96.00
55083;DHT22;40978;52.850;6.506;2023-06-14T00:51:43;15.70;96.00
55083;DHT22;40978;52.850;6.506;2023-06-14T00:54:09;15.70;95.70
55083;DHT22;40978;52.850;6.506;2023-06-14T00:56:38;15.70;96.40
55083;DHT22;40978;52.850;6.506;2023-06-14T00:59:05;15.70;98.00
55083;DHT22;40978;52.850;6.506;2023-06-14T01:01:31;15.60;98.20
55083;DHT22;40978;52.850;6.506;2023-06-14T01:04:00;15.60;97.20
55083;DHT22;40978;52.850;6.506;2023-06-14T01:09:37;15.50;99.60
55083;DHT22;40978;52.850;6.506;2023-06-14T01:12:17;15.50;99.10
55083;DHT22;40978;52.850;6.506;2023-06-14T01:14:48;15.50;99.90
55083;DHT22;40978;52.850;6.506;2023-06-14T01:17:15;15.50;99.70
55083;DHT22;40978;52.850;6.506;2023-06-14T01:19:45;15.40;99.90
55083;DHT22;40978;52.850;6.506;2023-06-14T01:22:11;15.30;99.90
55083;DHT22;40978;52.850;6.506;2023-06-14T01:24:37;15.30;99.90
55083;DHT22;40978;52.850;6.506;2023-06-14T01:27:05;15.30;99.90
55083;DHT22;40978;52.850;6.506;2023-06-14T01:29:32;15.30;99.90
55083;DHT22;40978;52.850;6.506;2023-06-14T01:31:59;15.20;99.90
55083;DHT22;40978;52.850;6.506;2023-06-14T01:34:26;15.20;99.90
55083;DHT22;40978;52.850;6.506;2023-06-14T01:36:52;15.20;99.90
55083;DHT22;40978;52.850;6.506;2023-06-14T01:39:21;15.20;99.90
55083;DHT22;40978;52.850;6.506;2023-06-14T01:41:48;15.10;99.90
55083;DHT22;40978;52.850;6.506;2023-06-14T01:44:16;15.10;99.90
55083;DHT22;40978;52.850;6.506;2023-06-14T01:46:42;15.10;99.90
55083;DHT22;40978;52.850;6.506;2023-06-14T01:49:09;15.00;99.90
55083;DHT22;40978;52.850;6.506;2023-06-14T01:51:35;15.00;99.90
55083;DHT22;40978;52.850;6.506;2023-06-14T01:54:01;15.00;99.90
55083;DHT22;40978;52.850;6.506;2023-06-14T01:56:27;14.90;99.90
55083;DHT22;40978;52.850;6.506;2023-06-14T01:58:53;14.90;99.90
55083;DHT22;40978;52.850;6.506;2023-06-14T02:01:19;14.90;99.90
55083;DHT22;40978;52.850;6.506;2023-06-14T02:03:47;14.80;99.90
55083;DHT22;40978;52.850;6.506;2023-06-14T02:06:13;14.80;99.90
55083;DHT22;40978;52.850;6.506;2023-06-14T02:08:41;14.80;99.90
55083;DHT22;40978;52.850;6.506;2023-06-14T02:11:08;14.70;99.90
55083;DHT22;40978;52.850;6.506;2023-06-14T02:13:33;14.70;99.90
55083;DHT22;40978;52.850;6.506;2023-06-14T02:16:00;14.70;99.90
55083;DHT22;40978;52.850;6.506;2023-06-14T02:18:26;14.60;99.90
55083;DHT22;40978;52.850;6.506;2023-06-14T02:20:52;14.60;99.90
55083;DHT22;40978;52.850;6.506;2023-06-14T02:23:18;14.60;99.90
55083;DHT22;40978;52.850;6.506;2023-06-14T02:25:44;14.60;99.90
55083;DHT22;40978;52.850;6.506;2023-06-14T02:28:11;14.60;99.90
55083;DHT22;40978;52.850;6.506;2023-06-14T02:30:37;14.50;99.90
55083;DHT22;40978;52.850;6.506;2023-06-14T02:33:03;14.50;99.90
55083;DHT22;40978;52.850;6.506;2023-06-14T02:35:30;14.40;99.90
55083;DHT22;40978;52.850;6.506;2023-06-14T02:37:56;14.40;99.90
55083;DHT22;40978;52.850;6.506;2023-06-14T02:40:22;14.40;99.90
55083;DHT22;40978;52.850;6.506;2023-06-14T02:42:48;14.30;99.90
55083;DHT22;40978;52.850;6.506;2023-06-14T02:45:13;14.30;99.90
55083;DHT22;40978;52.850;6.506;2023-06-14T02:47:39;14.30;99.90
55083;DHT22;40978;52.850;6.506;2023-06-14T02:50:06;14.30;99.90
55083;DHT22;40978;52.850;6.506;2023-06-14T02:52:31;14.20;99.90
55083;DHT22;40978;52.850;6.506;2023-06-14T02:54:58;14.20;99.90
55083;DHT22;40978;52.850;6.506;2023-06-14T02:57:24;14.20;99.90
55083;DHT22;40978;52.850;6.506;2023-06-14T02:59:50;14.20;99.90
55083;DHT22;40978;52.850;6.506;2023-06-14T03:02:16;14.10;99.90
55083;DHT22;40978;52.850;6.506;2023-06-14T03:04:41;14.10;99.90
55083;DHT22;40978;52.850;6.506;2023-06-14T03:07:10;14.10;99.90
55083;DHT22;40978;52.850;6.506;2023-06-14T03:09:39;14.00;99.90
55083;DHT22;40978;52.850;6.506;2023-06-14T03:12:06;14.00;99.90
55083;DHT22;40978;52.850;6.506;2023-06-14T03:14:35;14.00;99.90
55083;DHT22;40978;52.850;6.506;2023-06-14T03:17:01;13.90;99.90
55083;DHT22;40978;52.850;6.506;2023-06-14T03:19:27;13.90;99.90
55083;DHT22;40978;52.850;6.506;2023-06-14T03:21:53;13.90;99.90
55083;DHT22;40978;52.850;6.506;2023-06-14T03:24:23;13.90;99.90
55083;DHT22;40978;52.850;6.506;2023-06-14T03:26:49;13.90;99.90
55083;DHT22;40978;52.850;6.506;2023-06-14T03:29:14;13.80;99.90
55083;DHT22;40978;52.850;6.506;2023-06-14T03:32:00;13.80;99.90
55083;DHT22;40978;52.850;6.506;2023-06-14T03:34:26;13.80;99.90
55083;DHT22;40978;52.850;6.506;2023-06-14T03:36:52;13.80;99.90
55083;DHT22;40978;52.850;6.506;2023-06-14T03:39:18;13.80;99.90
55083;DHT22;40978;52.850;6.506;2023-06-14T03:41:43;13.80;99.90
55083;DHT22;40978;52.850;6.506;2023-06-14T03:44:09;13.70;99.90
55083;DHT22;40978;52.850;6.506;2023-06-14T03:46:35;13.70;99.90
55083;DHT22;40978;52.850;6.506;2023-06-14T03:49:01;13.70;99.90
55083;DHT22;40978;52.850;6.506;2023-06-14T03:51:28;13.70;99.90
55083;DHT22;40978;52.850;6.506;2023-06-14T03:53:54;13.80;99.90
55083;DHT22;40978;52.850;6.506;2023-06-14T03:56:21;13.80;99.90
55083;DHT22;40978;52.850;6.506;2023-06-14T03:58:47;13.80;99.90
55083;DHT22;40978;52.850;6.506;2023-06-14T04:01:13;13.80;99.90
55083;DHT22;40978;52.850;6.506;2023-06-14T04:03:39;13.80;99.90
55083;DHT22;40978;52.850;6.506;2023-06-14T04:06:06;13.90;99.90
55083;DHT22;40978;52.850;6.506;2023-06-14T04:08:32;13.80;99.90
55083;DHT22;40978;52.850;6.506;2023-06-14T04:10:57;13.90;99.90
55083;DHT22;40978;52.850;6.506;2023-06-14T04:13:23;13.80;99.90
55083;DHT22;40978;52.850;6.506;2023-06-14T04:15:49;13.90;99.90
55083;DHT22;40978;52.850;6.506;2023-06-14T04:18:14;13.90;99.90
55083;DHT22;40978;52.850;6.506;2023-06-14T04:20:40;14.00;99.90
55083;DHT22;40978;52.850;6.506;2023-06-14T04:23:13;14.00;99.90
55083;DHT22;40978;52.850;6.506;2023-06-14T04:25:40;14.20;99.90
55083;DHT22;40978;52.850;6.506;2023-06-14T04:28:06;14.30;99.90
55083;DHT22;40978;52.850;6.506;2023-06-14T04:30:34;14.40;99.90
55083;DHT22;40978;52.850;6.506;2023-06-14T04:33:01;14.40;99.90
55083;DHT22;40978;52.850;6.506;2023-06-14T04:35:31;14.50;99.90
55083;DHT22;40978;52.850;6.506;2023-06-14T04:37:58;14.60;99.90
55083;DHT22;40978;52.850;6.506;2023-06-14T04:40:24;14.60;99.90
55083;DHT22;40978;52.850;6.506;2023-06-14T04:42:50;14.70;99.90
55083;DHT22;40978;52.850;6.506;2023-06-14T04:45:17;14.80;99.90
55083;DHT22;40978;52.850;6.506;2023-06-14T04:47:42;14.90;99.90
55083;DHT22;40978;52.850;6.506;2023-06-14T04:50:10;15.00;99.90
55083;DHT22;40978;52.850;6.506;2023-06-14T04:52:38;15.00;99.90
55083;DHT22;40978;52.850;6.506;2023-06-14T04:55:04;15.20;99.90
55083;DHT22;40978;52.850;6.506;2023-06-14T04:57:31;15.30;99.90
55083;DHT22;40978;52.850;6.506;2023-06-14T04:59:57;15.50;99.90
55083;DHT22;40978;52.850;6.506;2023-06-14T05:02:23;15.90;99.90
55083;DHT22;40978;52.850;6.506;2023-06-14T05:04:50;16.30;99.90
55083;DHT22;40978;52.850;6.506;2023-06-14T05:07:16;16.60;99.90
55083;DHT22;40978;52.850;6.506;2023-06-14T05:09:42;16.70;99.90
55083;DHT22;40978;52.850;6.506;2023-06-14T05:12:08;16.70;99.90
55083;DHT22;40978;52.850;6.506;2023-06-14T05:14:34;16.60;99.90
55083;DHT22;40978;52.850;6.506;2023-06-14T05:17:00;16.80;99.90
55083;DHT22;40978;52.850;6.506;2023-06-14T05:19:26;16.70;99.90
55083;DHT22;40978;52.850;6.506;2023-06-14T05:21:52;16.60;99.90
55083;DHT22;40978;52.850;6.506;2023-06-14T05:24:18;16.50;99.90
55083;DHT22;40978;52.850;6.506;2023-06-14T05:26:47;16.50;99.90
55083;DHT22;40978;52.850;6.506;2023-06-14T05:29:14;16.40;99.90
55083;DHT22;40978;52.850;6.506;2023-06-14T05:31:40;16.50;99.90
55083;DHT22;40978;52.850;6.506;2023-06-14T05:34:06;16.50;99.90
55083;DHT22;40978;52.850;6.506;2023-06-14T05:36:31;16.50;99.90
55083;DHT22;40978;52.850;6.506;2023-06-14T05:38:57;16.60;99.90
55083;DHT22;40978;52.850;6.506;2023-06-14T05:41:28;16.60;99.90
55083;DHT22;40978;52.850;6.506;2023-06-14T05:43:55;16.70;99.90
55083;DHT22;40978;52.850;6.506;2023-06-14T05:46:21;16.80;99.90
55083;DHT22;40978;52.850;6.506;2023-06-14T05:48:50;16.80;99.90
55083;DHT22;40978;52.850;6.506;2023-06-14T05:51:16;16.90;99.90
55083;DHT22;40978;52.850;6.506;2023-06-14T05:53:45;17.10;99.90
55083;DHT22;40978;52.850;6.506;2023-06-14T05:56:12;17.20;99.90
55083;DHT22;40978;52.850;6.506;2023-06-14T05:58:37;17.30;99.90
55083;DHT22;40978;52.850;6.506;2023-06-14T06:01:03;17.40;99.90
55083;DHT22;40978;52.850;6.506;2023-06-14T06:03:29;17.50;99.90
55083;DHT22;40978;52.850;6.506;2023-06-14T06:05:58;17.60;99.90
55083;DHT22;40978;52.850;6.506;2023-06-14T06:08:24;17.70;99.90
55083;DHT22;40978;52.850;6.506;2023-06-14T06:10:50;17.80;99.90
55083;DHT22;40978;52.850;6.506;2023-06-14T06:13:16;17.90;99.90
55083;DHT22;40978;52.850;6.506;2023-06-14T06:15:41;18.00;99.90
55083;DHT22;40978;52.850;6.506;2023-06-14T06:18:07;18.10;99.90
55083;DHT22;40978;52.850;6.506;2023-06-14T06:20:33;18.10;99.90
55083;DHT22;40978;52.850;6.506;2023-06-14T06:22:59;18.20;99.90
55083;DHT22;40978;52.850;6.506;2023-06-14T06:25:26;18.30;99.90
55083;DHT22;40978;52.850;6.506;2023-06-14T06:27:57;18.40;99.90
55083;DHT22;40978;52.850;6.506;2023-06-14T06:30:23;18.50;99.90
55083;DHT22;40978;52.850;6.506;2023-06-14T06:32:50;18.70;99.90
55083;DHT22;40978;52.850;6.506;2023-06-14T06:35:16;18.80;99.90
55083;DHT22;40978;52.850;6.506;2023-06-14T06:37:42;18.90;99.90
55083;DHT22;40978;52.850;6.506;2023-06-14T06:40:08;19.00;99.90
55083;DHT22;40978;52.850;6.506;2023-06-14T06:42:35;19.20;99.90
55083;DHT22;40978;52.850;6.506;2023-06-14T06:45:01;19.30;99.90
55083;DHT22;40978;52.850;6.506;2023-06-14T06:47:27;19.40;99.00
55083;DHT22;40978;52.850;6.506;2023-06-14T06:49:52;19.50;99.00
55083;DHT22;40978;52.850;6.506;2023-06-14T06:52:18;19.60;98.70
55083;DHT22;40978;52.850;6.506;2023-06-14T06:54:44;19.70;97.70
55083;DHT22;40978;52.850;6.506;2023-06-14T06:57:09;19.70;95.90
55083;DHT22;40978;52.850;6.506;2023-06-14T06:59:36;19.70;95.50
55083;DHT22;40978;52.850;6.506;2023-06-14T07:02:03;19.80;96.10
55083;DHT22;40978;52.850;6.506;2023-06-14T07:04:28;19.80;96.00
55083;DHT22;40978;52.850;6.506;2023-06-14T07:06:55;20.00;97.00
55083;DHT22;40978;52.850;6.506;2023-06-14T07:09:21;20.10;94.80
55083;DHT22;40978;52.850;6.506;2023-06-14T07:11:47;20.20;94.00
55083;DHT22;40978;52.850;6.506;2023-06-14T07:14:12;20.30;95.10
55083;DHT22;40978;52.850;6.506;2023-06-14T07:16:38;20.40;94.00
55083;DHT22;40978;52.850;6.506;2023-06-14T07:19:05;20.50;94.40
55083;DHT22;40978;52.850;6.506;2023-06-14T07:21:31;20.60;93.20
55083;DHT22;40978;52.850;6.506;2023-06-14T07:23:57;20.60;90.90
55083;DHT22;40978;52.850;6.506;2023-06-14T07:26:23;20.70;91.00
55083;DHT22;40978;52.850;6.506;2023-06-14T07:28:49;20.80;91.40
55083;DHT22;40978;52.850;6.506;2023-06-14T07:31:17;20.80;91.80
55083;DHT22;40978;52.850;6.506;2023-06-14T07:33:45;20.90;91.50
55083;DHT22;40978;52.850;6.506;2023-06-14T07:36:11;20.90;91.20
55083;DHT22;40978;52.850;6.506;2023-06-14T07:38:36;21.00;90.20
55083;DHT22;40978;52.850;6.506;2023-06-14T07:41:02;21.10;88.20
55083;DHT22;40978;52.850;6.506;2023-06-14T07:43:28;21.10;87.60
55083;DHT22;40978;52.850;6.506;2023-06-14T07:45:54;21.10;90.20
55083;DHT22;40978;52.850;6.506;2023-06-14T07:48:20;21.30;90.20
55083;DHT22;40978;52.850;6.506;2023-06-14T07:50:46;21.50;88.00
55083;DHT22;40978;52.850;6.506;2023-06-14T07:53:12;21.50;84.50
55083;DHT22;40978;52.850;6.506;2023-06-14T07:55:38;21.50;84.70
55083;DHT22;40978;52.850;6.506;2023-06-14T07:58:08;21.50;83.80
55083;DHT22;40978;52.850;6.506;2023-06-14T08:00:33;21.60;82.90
55083;DHT22;40978;52.850;6.506;2023-06-14T08:02:59;21.50;80.40
55083;DHT22;40978;52.850;6.506;2023-06-14T08:05:26;21.70;80.50
55083;DHT22;40978;52.850;6.506;2023-06-14T08:07:52;21.70;81.90
55083;DHT22;40978;52.850;6.506;2023-06-14T08:10:18;21.80;78.10
55083;DHT22;40978;52.850;6.506;2023-06-14T08:12:43;22.00;79.20
55083;DHT22;40978;52.850;6.506;2023-06-14T08:15:10;22.10;79.50
55083;DHT22;40978;52.850;6.506;2023-06-14T08:17:36;22.20;79.70
55083;DHT22;40978;52.850;6.506;2023-06-14T08:20:02;22.50;79.40
55083;DHT22;40978;52.850;6.506;2023-06-14T08:22:29;22.50;74.50
55083;DHT22;40978;52.850;6.506;2023-06-14T08:24:58;22.50;77.20
55083;DHT22;40978;52.850;6.506;2023-06-14T08:27:23;22.50;74.30
55083;DHT22;40978;52.850;6.506;2023-06-14T08:29:49;22.60;74.10
55083;DHT22;40978;52.850;6.506;2023-06-14T08:32:15;22.60;72.50
55083;DHT22;40978;52.850;6.506;2023-06-14T08:34:41;22.70;71.40
55083;DHT22;40978;52.850;6.506;2023-06-14T08:37:07;22.80;70.80
55083;DHT22;40978;52.850;6.506;2023-06-14T08:39:33;23.00;68.00
55083;DHT22;40978;52.850;6.506;2023-06-14T08:42:02;22.90;65.00
55083;DHT22;40978;52.850;6.506;2023-06-14T08:44:29;23.00;68.40
55083;DHT22;40978;52.850;6.506;2023-06-14T08:46:56;23.00;66.30
55083;DHT22;40978;52.850;6.506;2023-06-14T08:49:25;23.00;64.50
55083;DHT22;40978;52.850;6.506;2023-06-14T08:51:57;23.00;63.90
55083;DHT22;40978;52.850;6.506;2023-06-14T08:54:23;23.10;65.10
55083;DHT22;40978;52.850;6.506;2023-06-14T08:56:54;23.30;64.40
55083;DHT22;40978;52.850;6.506;2023-06-14T08:59:25;23.50;63.40
55083;DHT22;40978;52.850;6.506;2023-06-14T09:01:52;23.60;61.00
55083;DHT22;40978;52.850;6.506;2023-06-14T09:04:23;23.40;61.00
55083;DHT22;40978;52.850;6.506;2023-06-14T09:06:50;23.40;61.30
55083;DHT22;40978;52.850;6.506;2023-06-14T09:09:22;23.40;61.30
55083;DHT22;40978;52.850;6.506;2023-06-14T09:11:50;23.40;61.60
55083;DHT22;40978;52.850;6.506;2023-06-14T09:14:17;23.50;60.70
55083;DHT22;40978;52.850;6.506;2023-06-14T09:16:43;23.70;61.00
55083;DHT22;40978;52.850;6.506;2023-06-14T09:19:09;23.80;59.10
55083;DHT22;40978;52.850;6.506;2023-06-14T09:21:40;23.90;60.20
55083;DHT22;40978;52.850;6.506;2023-06-14T09:24:06;24.10;58.40
55083;DHT22;40978;52.850;6.506;2023-06-14T09:26:39;24.10;57.80
55083;DHT22;40978;52.850;6.506;2023-06-14T09:29:06;24.00;59.40
55083;DHT22;40978;52.850;6.506;2023-06-14T09:31:32;24.00;60.00
55083;DHT22;40978;52.850;6.506;2023-06-14T09:33:58;23.90;57.60
55083;DHT22;40978;52.850;6.506;2023-06-14T09:36:27;24.00;59.30
55083;DHT22;40978;52.850;6.506;2023-06-14T09:39:02;24.20;58.90
55083;DHT22;40978;52.850;6.506;2023-06-14T09:41:36;24.30;58.40
55083;DHT22;40978;52.850;6.506;2023-06-14T09:44:04;24.50;59.70
55083;DHT22;40978;52.850;6.506;2023-06-14T09:46:30;24.80;57.70
55083;DHT22;40978;52.850;6.506;2023-06-14T09:48:59;24.70;55.00
55083;DHT22;40978;52.850;6.506;2023-06-14T09:51:26;24.70;55.60
55083;DHT22;40978;52.850;6.506;2023-06-14T09:53:55;24.80;54.20
55083;DHT22;40978;52.850;6.506;2023-06-14T09:56:28;24.80;54.60
55083;DHT22;40978;52.850;6.506;2023-06-14T09:58:59;24.90;56.50
55083;DHT22;40978;52.850;6.506;2023-06-14T10:01:26;24.90;55.50
55083;DHT22;40978;52.850;6.506;2023-06-14T10:03:57;25.10;56.30
55083;DHT22;40978;52.850;6.506;2023-06-14T10:06:25;25.00;56.70
55083;DHT22;40978;52.850;6.506;2023-06-14T10:08:57;25.20;55.30
55083;DHT22;40978;52.850;6.506;2023-06-14T10:11:25;25.30;55.90
55083;DHT22;40978;52.850;6.506;2023-06-14T10:13:51;25.50;53.50
55083;DHT22;40978;52.850;6.506;2023-06-14T10:16:23;25.30;54.30
55083;DHT22;40978;52.850;6.506;2023-06-14T10:18:57;25.40;53.20
55083;DHT22;40978;52.850;6.506;2023-06-14T10:24:20;25.20;52.80
55083;DHT22;40978;52.850;6.506;2023-06-14T10:26:54;25.10;52.00
55083;DHT22;40978;52.850;6.506;2023-06-14T10:29:22;25.00;52.50
55083;DHT22;40978;52.850;6.506;2023-06-14T10:31:49;24.90;51.50
55083;DHT22;40978;52.850;6.506;2023-06-14T10:34:27;25.00;52.00
55083;DHT22;40978;52.850;6.506;2023-06-14T10:37:13;25.20;51.80
55083;DHT22;40978;52.850;6.506;2023-06-14T10:39:40;25.40;50.80
55083;DHT22;40978;52.850;6.506;2023-06-14T10:42:06;25.60;50.40
55083;DHT22;40978;52.850;6.506;2023-06-14T10:50:07;26.10;49.30
55083;DHT22;40978;52.850;6.506;2023-06-14T10:52:35;26.10;49.60
55083;DHT22;40978;52.850;6.506;2023-06-14T10:57:46;26.10;49.90
55083;DHT22;40978;52.850;6.506;2023-06-14T11:00:15;26.30;47.80
55083;DHT22;40978;52.850;6.506;2023-06-14T11:05:27;26.40;48.20
55083;DHT22;40978;52.850;6.506;2023-06-14T11:10:59;26.30;47.30
55083;DHT22;40978;52.850;6.506;2023-06-14T11:13:28;26.10;47.20
55083;DHT22;40978;52.850;6.506;2023-06-14T11:15:54;26.20;48.20
55083;DHT22;40978;52.850;6.506;2023-06-14T11:18:22;26.00;48.00
55083;DHT22;40978;52.850;6.506;2023-06-14T11:20:53;26.20;47.40
55083;DHT22;40978;52.850;6.506;2023-06-14T11:23:19;26.20;47.40
55083;DHT22;40978;52.850;6.506;2023-06-14T11:25:51;26.50;46.90
55083;DHT22;40978;52.850;6.506;2023-06-14T11:28:17;26.50;47.20
55083;DHT22;40978;52.850;6.506;2023-06-14T11:30:45;26.70;46.50
55083;DHT22;40978;52.850;6.506;2023-06-14T11:33:17;26.70;46.80
55083;DHT22;40978;52.850;6.506;2023-06-14T11:35:44;26.50;47.80
55083;DHT22;40978;52.850;6.506;2023-06-14T11:38:11;26.70;48.70
55083;DHT22;40978;52.850;6.506;2023-06-14T11:40:38;26.80;47.90
55083;DHT22;40978;52.850;6.506;2023-06-14T11:43:22;27.10;46.60
55083;DHT22;40978;52.850;6.506;2023-06-14T11:45:48;27.00;48.90
55083;DHT22;40978;52.850;6.506;2023-06-14T11:48:14;27.30;46.30
55083;DHT22;40978;52.850;6.506;2023-06-14T11:50:40;27.30;46.20
55083;DHT22;40978;52.850;6.506;2023-06-14T11:53:06;27.10;45.40
55083;DHT22;40978;52.850;6.506;2023-06-14T11:55:37;26.90;46.60
55083;DHT22;40978;52.850;6.506;2023-06-14T11:58:02;26.90;46.80
55083;DHT22;40978;52.850;6.506;2023-06-14T12:00:29;27.00;45.30
55083;DHT22;40978;52.850;6.506;2023-06-14T12:02:56;26.90;45.50
55083;DHT22;40978;52.850;6.506;2023-06-14T12:05:22;26.70;46.30
55083;DHT22;40978;52.850;6.506;2023-06-14T12:07:49;26.70;45.90
55083;DHT22;40978;52.850;6.506;2023-06-14T12:10:16;26.60;45.80
55083;DHT22;40978;52.850;6.506;2023-06-14T12:12:42;26.60;46.90
55083;DHT22;40978;52.850;6.506;2023-06-14T12:15:09;26.70;47.60
55083;DHT22;40978;52.850;6.506;2023-06-14T12:17:37;26.80;47.10
55083;DHT22;40978;52.850;6.506;2023-06-14T12:22:37;27.20;46.70
55083;DHT22;40978;52.850;6.506;2023-06-14T12:25:04;27.20;45.80
55083;DHT22;40978;52.850;6.506;2023-06-14T12:27:30;27.10;46.00
55083;DHT22;40978;52.850;6.506;2023-06-14T12:30:03;27.10;47.70
55083;DHT22;40978;52.850;6.506;2023-06-14T12:32:30;27.20;47.50
55083;DHT22;40978;52.850;6.506;2023-06-14T12:34:56;27.30;45.70
55083;DHT22;40978;52.850;6.506;2023-06-14T12:37:22;27.00;45.50
55083;DHT22;40978;52.850;6.506;2023-06-14T12:39:47;27.00;45.90
55083;DHT22;40978;52.850;6.506;2023-06-14T12:42:13;26.80;46.00
55083;DHT22;40978;52.850;6.506;2023-06-14T12:44:40;26.90;47.80
55083;DHT22;40978;52.850;6.506;2023-06-14T12:47:07;26.90;47.70
55083;DHT22;40978;52.850;6.506;2023-06-14T12:49:33;26.90;47.20
55083;DHT22;40978;52.850;6.506;2023-06-14T12:51:59;26.80;46.30
55083;DHT22;40978;52.850;6.506;2023-06-14T12:54:24;26.80;47.00
55083;DHT22;40978;52.850;6.506;2023-06-14T12:56:53;27.00;45.90
55083;DHT22;40978;52.850;6.506;2023-06-14T12:59:20;27.00;46.00
55083;DHT22;40978;52.850;6.506;2023-06-14T13:01:46;27.10;45.50
55083;DHT22;40978;52.850;6.506;2023-06-14T13:04:15;27.10;46.30
55083;DHT22;40978;52.850;6.506;2023-06-14T13:06:41;27.00;45.30
55083;DHT22;40978;52.850;6.506;2023-06-14T13:09:06;26.80;45.90
55083;DHT22;40978;52.850;6.506;2023-06-14T13:11:33;26.90;47.20
55083;DHT22;40978;52.850;6.506;2023-06-14T13:13:59;26.90;47.40
55083;DHT22;40978;52.850;6.506;2023-06-14T13:16:25;26.80;46.60
55083;DHT22;40978;52.850;6.506;2023-06-14T13:18:50;26.80;46.80
55083;DHT22;40978;52.850;6.506;2023-06-14T13:21:16;27.00;47.10
55083;DHT22;40978;52.850;6.506;2023-06-14T13:23:42;27.00;46.50
55083;DHT22;40978;52.850;6.506;2023-06-14T13:26:08;26.90;46.90
55083;DHT22;40978;52.850;6.506;2023-06-14T13:28:34;26.70;46.80
55083;DHT22;40978;52.850;6.506;2023-06-14T13:31:00;26.60;46.70
55083;DHT22;40978;52.850;6.506;2023-06-14T13:33:27;26.50;47.60
55083;DHT22;40978;52.850;6.506;2023-06-14T13:35:53;26.40;48.30
55083;DHT22;40978;52.850;6.506;2023-06-14T13:38:19;26.40;50.30
55083;DHT22;40978;52.850;6.506;2023-06-14T13:40:44;26.70;49.30
55083;DHT22;40978;52.850;6.506;2023-06-14T13:43:10;26.70;45.40
55083;DHT22;40978;52.850;6.506;2023-06-14T13:45:36;26.60;46.40
55083;DHT22;40978;52.850;6.506;2023-06-14T13:48:02;26.50;47.60
55083;DHT22;40978;52.850;6.506;2023-06-14T13:50:28;26.40;46.30
55083;DHT22;40978;52.850;6.506;2023-06-14T13:52:54;26.30;47.80
55083;DHT22;40978;52.850;6.506;2023-06-14T13:55:19;26.20;46.90
55083;DHT22;40978;52.850;6.506;2023-06-14T13:57:45;26.00;48.00
55083;DHT22;40978;52.850;6.506;2023-06-14T14:00:11;25.90;47.10
55083;DHT22;40978;52.850;6.506;2023-06-14T14:02:37;25.90;46.90
55083;DHT22;40978;52.850;6.506;2023-06-14T14:05:05;25.80;47.60
55083;DHT22;40978;52.850;6.506;2023-06-14T14:07:31;26.00;47.80
55083;DHT22;40978;52.850;6.506;2023-06-14T14:09:56;25.90;47.60
55083;DHT22;40978;52.850;6.506;2023-06-14T14:12:23;25.70;47.90
55083;DHT22;40978;52.850;6.506;2023-06-14T14:14:49;25.70;47.40
55083;DHT22;40978;52.850;6.506;2023-06-14T14:17:15;25.70;48.50
55083;DHT22;40978;52.850;6.506;2023-06-14T14:19:41;25.80;48.00
55083;DHT22;40978;52.850;6.506;2023-06-14T14:22:07;25.90;48.10
55083;DHT22;40978;52.850;6.506;2023-06-14T14:24:33;25.80;48.40
55083;DHT22;40978;52.850;6.506;2023-06-14T14:26:58;25.90;48.40
55083;DHT22;40978;52.850;6.506;2023-06-14T14:29:25;25.80;47.10
55083;DHT22;40978;52.850;6.506;2023-06-14T14:31:54;25.80;48.10
55083;DHT22;40978;52.850;6.506;2023-06-14T14:34:21;25.80;47.80
55083;DHT22;40978;52.850;6.506;2023-06-14T14:36:47;25.80;47.20
55083;DHT22;40978;52.850;6.506;2023-06-14T14:39:13;25.70;47.70
55083;DHT22;40978;52.850;6.506;2023-06-14T14:41:38;25.50;47.40
55083;DHT22;40978;52.850;6.506;2023-06-14T14:44:05;25.50;47.50
55083;DHT22;40978;52.850;6.506;2023-06-14T14:46:31;25.60;48.10
55083;DHT22;40978;52.850;6.506;2023-06-14T14:48:59;25.60;47.60
55083;DHT22;40978;52.850;6.506;2023-06-14T14:51:24;25.60;47.30
55083;DHT22;40978;52.850;6.506;2023-06-14T14:53:50;25.60;48.60
55083;DHT22;40978;52.850;6.506;2023-06-14T14:56:16;25.60;48.50
55083;DHT22;40978;52.850;6.506;2023-06-14T14:58:42;25.60;47.90
55083;DHT22;40978;52.850;6.506;2023-06-14T15:01:08;25.60;49.30
55083;DHT22;40978;52.850;6.506;2023-06-14T15:03:34;25.50;47.80
55083;DHT22;40978;52.850;6.506;2023-06-14T15:06:00;25.40;47.70
55083;DHT22;40978;52.850;6.506;2023-06-14T15:08:26;25.20;48.30
55083;DHT22;40978;52.850;6.506;2023-06-14T15:10:51;25.10;48.50
55083;DHT22;40978;52.850;6.506;2023-06-14T15:13:17;25.00;48.60
55083;DHT22;40978;52.850;6.506;2023-06-14T15:15:43;24.80;48.40
55083;DHT22;40978;52.850;6.506;2023-06-14T15:18:09;24.80;49.90
55083;DHT22;40978;52.850;6.506;2023-06-14T15:20:35;24.90;49.90
55083;DHT22;40978;52.850;6.506;2023-06-14T15:23:01;24.90;48.60
55083;DHT22;40978;52.850;6.506;2023-06-14T15:25:29;24.90;48.40
55083;DHT22;40978;52.850;6.506;2023-06-14T15:27:57;24.80;47.70
55083;DHT22;40978;52.850;6.506;2023-06-14T15:30:23;24.80;48.60
55083;DHT22;40978;52.850;6.506;2023-06-14T15:32:49;24.80;48.00
55083;DHT22;40978;52.850;6.506;2023-06-14T15:35:16;24.80;47.90
55083;DHT22;40978;52.850;6.506;2023-06-14T15:37:43;24.80;48.60
55083;DHT22;40978;52.850;6.506;2023-06-14T15:40:09;24.90;48.70
55083;DHT22;40978;52.850;6.506;2023-06-14T15:42:35;24.90;48.30
55083;DHT22;40978;52.850;6.506;2023-06-14T15:45:01;25.00;48.40
55083;DHT22;40978;52.850;6.506;2023-06-14T15:47:27;25.10;49.40
55083;DHT22;40978;52.850;6.506;2023-06-14T15:49:52;25.20;48.70